Date,TemperatureHighF,TemperatureAvgF,TemperatureLowF,DewpointHighF,DewpointAvgF,DewpointLowF,HumidityHigh,HumidityAvg,HumidityLow,PressureMaxIn,PressureMinIn,WindSpeedMaxMPH,WindSpeedAvgMPH,GustSpeedMaxMPH,PrecipitationSumIn
2013-3-1,61,56,53,52,51,50,93,84,70,30.47,30.32,5,2,10,0.00
2013-3-2,56,50,41,51,47,39,97,89,74,30.33,30.17,4,1,10,0.10
2013-3-3,51,40,32,40,35,30,98,84,52,30.34,30.27,3,0,7,0.01
2013-3-4,55,43,28,31,28,25,98,59,36,30.28,29.93,7,3,17,0.01
2013-3-5,45,42,40,40,34,26,93,74,49,29.93,29.66,5,2,12,0.32
2013-3-6,44,42,40,42,39,36,95,90,82,29.99,29.56,7,2,15,0.39
2013-3-7,58,43,30,40,36,30,98,77,41,30.08,29.99,2,0,5,0.00
2013-3-8,61,43,27,41,34,26,98,75,38,30.23,30.05,2,0,5,0.01
2013-3-9,61,43,28,42,34,27,97,76,34,30.51,30.23,2,0,5,0.00
2013-3-10,50,42,32,44,38,31,95,86,74,30.52,30.44,1,0,4,0.01
2013-3-11,54,49,44,50,46,42,95,91,82,30.45,30.25,1,0,3,0.03
2013-3-12,61,53,46,50,48,45,98,85,62,30.25,30.17,4,1,12,0.00
2013-3-13,66,54,45,50,47,43,95,79,53,30.25,30.10,3,0,6,0.00
2013-3-14,60,53,46,49,46,40,96,79,49,30.22,30.06,6,1,14,0.00
2013-3-15,66,57,49,51,48,43,90,74,45,30.25,30.16,5,1,12,0.00
2013-3-16,50,46,38,46,43,37,96,89,80,30.19,30.02,6,1,15,0.26
2013-3-17,50,42,37,39,36,32,95,78,52,30.32,30.15,5,1,12,0.01
2013-3-18,56,44,37,39,36,34,91,76,49,30.31,30.18,4,1,13,0.00
2013-3-19,52,44,36,44,36,30,96,75,52,30.18,29.70,8,3,18,0.48
2013-3-20,53,48,39,50,43,34,98,83,60,30.17,29.54,8,3,27,0.41
2013-3-21,49,42,38,40,35,32,91,79,54,30.32,30.17,5,2,14,0.06
2013-3-22,49,39,33,38,34,30,96,85,52,30.42,30.31,3,0,8,0.07
2013-3-23,52,39,32,38,32,25,98,79,34,30.42,30.29,2,0,6,0.00
2013-3-24,54,45,34,34,32,29,92,62,43,30.29,30.11,6,3,15,0.00
2013-3-25,60,52,44,37,31,27,61,46,34,30.11,29.92,6,3,12,0.00
2013-3-26,54,47,38,46,41,34,91,82,61,30.05,29.98,2,0,5,0.00
2013-3-27,65,52,38,50,44,36,97,78,46,30.01,29.91,3,0,8,0.14
2013-3-28,66,54,45,51,47,44,98,80,45,30.14,30.01,3,0,7,0.00
2013-3-29,72,57,48,53,48,45,93,74,43,30.22,30.14,3,0,6,0.00
2013-3-30,78,58,40,52,46,39,97,68,36,30.20,29.98,4,1,11,0.00
2013-3-31,78,62,45,53,47,41,87,59,32,30.01,29.89,4,1,8,0.00